sensor_id;sensor_type;location;lat;lon;timestamp;pressure;altitude;pressure_sealevel;temperature;humidity
70976;BME280;58635;51.198;6.010;2022-08-01T00:00:00;101489.41;;;24.82;57.05
70976;BME280;58635;51.198;6.010;2022-08-01T00:02:27;101493.91;;;24.81;57.37
70976;BME280;58635;51.198;6.010;2022-08-01T00:04:54;101487.81;;;24.81;57.24
70976;BME280;58635;51.198;6.010;2022-08-01T00:07:19;101486.25;;;24.79;57.39
70976;BME280;58635;51.198;6.010;2022-08-01T00:09:45;101492.88;;;24.77;56.99
70976;BME280;58635;51.198;6.010;2022-08-01T00:12:10;101492.88;;;24.77;56.99
70976;BME280;58635;51.198;6.010;2022-08-01T00:14:36;101491.03;;;24.77;57.18
70976;BME280;58635;51.198;6.010;2022-08-01T00:17:02;101489.16;;;24.78;57.32
70976;BME280;58635;51.198;6.010;2022-08-01T00:19:27;101489.72;;;24.75;56.95
70976;BME280;58635;51.198;6.010;2022-08-01T00:21:53;101491.81;;;24.73;57.08
70976;BME280;58635;51.198;6.010;2022-08-01T00:24:18;101494.72;;;24.71;57.22
70976;BME280;58635;51.198;6.010;2022-08-01T00:26:44;101491.81;;;24.73;57.65
70976;BME280;58635;51.198;6.010;2022-08-01T00:29:09;101500.03;;;24.76;57.26
70976;BME280;58635;51.198;6.010;2022-08-01T00:31:34;101496.59;;;24.76;57.40
70976;BME280;58635;51.198;6.010;2022-08-01T00:34:00;101498.69;;;24.74;57.41
70976;BME280;58635;51.198;6.010;2022-08-01T00:36:25;101491.56;;;24.74;57.30
70976;BME280;58635;51.198;6.010;2022-08-01T00:38:51;101493.16;;;24.75;57.20
70976;BME280;58635;51.198;6.010;2022-08-01T00:41:16;101487.31;;;24.73;57.36
70976;BME280;58635;51.198;6.010;2022-08-01T00:43:42;101489.97;;;24.73;57.45
70976;BME280;58635;51.198;6.010;2022-08-01T00:46:07;101486.28;;;24.74;57.37
70976;BME280;58635;51.198;6.010;2022-08-01T00:48:33;101493.38;;;24.79;57.12
70976;BME280;58635;51.198;6.010;2022-08-01T00:50:58;101484.38;;;24.80;57.33
70976;BME280;58635;51.198;6.010;2022-08-01T00:53:24;101486.25;;;24.79;57.32
70976;BME280;58635;51.198;6.010;2022-08-01T00:55:50;101485.44;;;24.79;56.91
70976;BME280;58635;51.198;6.010;2022-08-01T00:58:16;101480.16;;;24.79;56.78
70976;BME280;58635;51.198;6.010;2022-08-01T01:00:41;101485.72;;;24.77;57.01
70976;BME280;58635;51.198;6.010;2022-08-01T01:03:07;101490.75;;;24.79;57.30
70976;BME280;58635;51.198;6.010;2022-08-01T01:05:41;101489.16;;;24.78;57.08
70976;BME280;58635;51.198;6.010;2022-08-01T01:08:21;101487.06;;;24.75;56.71
70976;BME280;58635;51.198;6.010;2022-08-01T01:10:55;101490.75;;;24.74;57.36
70976;BME280;58635;51.198;6.010;2022-08-01T01:13:43;101494.72;;;24.71;57.37
70976;BME280;58635;51.198;6.010;2022-08-01T01:16:15;101484.94;;;24.72;57.24
70976;BME280;58635;51.198;6.010;2022-08-01T01:18:54;101492.59;;;24.73;57.36
70976;BME280;58635;51.198;6.010;2022-08-01T01:29:30;101490.50;;;24.70;57.26
70976;BME280;58635;51.198;6.010;2022-08-01T01:35:15;101483.63;;;24.69;56.96
70976;BME280;58635;51.198;6.010;2022-08-01T01:37:42;101488.13;;;24.69;57.38
70976;BME280;58635;51.198;6.010;2022-08-01T01:40:11;101488.94;;;24.69;57.10
70976;BME280;58635;51.198;6.010;2022-08-01T01:42:37;101494.72;;;24.71;57.34
70976;BME280;58635;51.198;6.010;2022-08-01T01:45:04;101491.03;;;24.72;57.22
70976;BME280;58635;51.198;6.010;2022-08-01T01:47:31;101495.53;;;24.72;57.29
70976;BME280;58635;51.198;6.010;2022-08-01T01:49:58;101492.09;;;24.71;57.22
70976;BME280;58635;51.198;6.010;2022-08-01T01:52:26;101490.00;;;24.68;57.66
70976;BME280;58635;51.198;6.010;2022-08-01T01:54:54;101485.25;;;24.65;58.01
70976;BME280;58635;51.198;6.010;2022-08-01T01:57:21;101487.63;;;24.67;57.88
70976;BME280;58635;51.198;6.010;2022-08-01T01:59:49;101493.97;;;24.66;58.75
70976;BME280;58635;51.198;6.010;2022-08-01T02:02:16;101486.31;;;24.64;58.43
70976;BME280;58635;51.198;6.010;2022-08-01T02:04:45;101479.97;;;24.65;58.56
70976;BME280;58635;51.198;6.010;2022-08-01T02:07:16;101475.72;;;24.64;58.39
70976;BME280;58635;51.198;6.010;2022-08-01T02:09:43;101478.66;;;24.63;58.89
70976;BME280;58635;51.198;6.010;2022-08-01T02:12:11;101478.91;;;24.61;58.83
70976;BME280;58635;51.198;6.010;2022-08-01T02:14:38;101472.03;;;24.60;58.88
70976;BME280;58635;51.198;6.010;2022-08-01T02:17:09;101472.28;;;24.59;59.15
70976;BME280;58635;51.198;6.010;2022-08-01T02:19:35;101469.41;;;24.55;59.43
70976;BME280;58635;51.198;6.010;2022-08-01T02:22:07;101465.69;;;24.56;59.41
70976;BME280;58635;51.198;6.010;2022-08-01T02:24:37;101463.34;;;24.55;58.91
70976;BME280;58635;51.198;6.010;2022-08-01T02:27:09;101465.47;;;24.53;59.20
70976;BME280;58635;51.198;6.010;2022-08-01T02:29:45;101472.06;;;24.50;59.30
70976;BME280;58635;51.198;6.010;2022-08-01T02:32:15;101465.47;;;24.47;59.46
70976;BME280;58635;51.198;6.010;2022-08-01T02:34:46;101473.66;;;24.46;59.54
70976;BME280;58635;51.198;6.010;2022-08-01T02:37:14;101477.38;;;24.45;59.33
70976;BME280;58635;51.198;6.010;2022-08-01T02:39:41;101483.97;;;24.47;59.58
70976;BME280;58635;51.198;6.010;2022-08-01T02:42:08;101469.97;;;24.47;59.26
70976;BME280;58635;51.198;6.010;2022-08-01T02:44:38;101470.50;;;24.44;59.52
70976;BME280;58635;51.198;6.010;2022-08-01T02:47:05;101481.59;;;24.46;59.18
70976;BME280;58635;51.198;6.010;2022-08-01T02:49:35;101489.53;;;24.46;59.64
70976;BME280;58635;51.198;6.010;2022-08-01T02:52:04;101480.03;;;24.45;59.51
70976;BME280;58635;51.198;6.010;2022-08-01T02:54:32;101477.38;;;24.45;59.62
70976;BME280;58635;51.198;6.010;2022-08-01T02:57:00;101476.34;;;24.41;59.93
70976;BME280;58635;51.198;6.010;2022-08-01T02:59:26;101473.69;;;24.41;59.57
70976;BME280;58635;51.198;6.010;2022-08-01T03:01:57;101478.97;;;24.41;59.65
70976;BME280;58635;51.198;6.010;2022-08-01T03:04:24;101480.03;;;24.40;59.64
70976;BME280;58635;51.198;6.010;2022-08-01T03:06:51;101484.28;;;24.41;59.93
70976;BME280;58635;51.198;6.010;2022-08-01T03:09:19;101485.84;;;24.37;59.59
70976;BME280;58635;51.198;6.010;2022-08-01T03:11:46;101468.41;;;24.36;59.93
70976;BME280;58635;51.198;6.010;2022-08-01T03:14:14;101476.59;;;24.34;60.13
70976;BME280;58635;51.198;6.010;2022-08-01T03:16:42;101482.44;;;24.31;59.87
70976;BME280;58635;51.198;6.010;2022-08-01T03:19:10;101480.84;;;24.30;60.06
70976;BME280;58635;51.198;6.010;2022-08-01T03:21:37;101476.59;;;24.29;60.08
70976;BME280;58635;51.198;6.010;2022-08-01T03:24:05;101472.91;;;24.30;59.64
70976;BME280;58635;51.198;6.010;2022-08-01T03:26:33;101477.94;;;24.32;59.67
70976;BME280;58635;51.198;6.010;2022-08-01T03:29:04;101487.44;;;24.33;59.75
70976;BME280;58635;51.198;6.010;2022-08-01T03:31:35;101484.25;;;24.36;60.10
70976;BME280;58635;51.198;6.010;2022-08-01T03:34:02;101484.53;;;24.34;59.80
70976;BME280;58635;51.198;6.010;2022-08-01T03:36:28;101480.31;;;24.33;59.72
70976;BME280;58635;51.198;6.010;2022-08-01T03:38:57;101484.00;;;24.32;59.68
70976;BME280;58635;51.198;6.010;2022-08-01T03:41:26;101486.66;;;24.32;60.05
70976;BME280;58635;51.198;6.010;2022-08-01T03:43:56;101481.66;;;24.31;59.71
70976;BME280;58635;51.198;6.010;2022-08-01T03:46:28;101490.09;;;24.33;59.77
70976;BME280;58635;51.198;6.010;2022-08-01T04:52:38;101522.06;;;24.21;60.62
70976;BME280;58635;51.198;6.010;2022-08-01T04:55:04;101528.66;;;24.24;60.28
70976;BME280;58635;51.198;6.010;2022-08-01T04:57:39;101533.41;;;24.27;60.67
70976;BME280;58635;51.198;6.010;2022-08-01T05:00:06;101524.97;;;24.25;60.82
70976;BME280;58635;51.198;6.010;2022-08-01T05:02:32;101530.78;;;24.27;60.49
70976;BME280;58635;51.198;6.010;2022-08-01T05:04:58;101533.41;;;24.27;60.64
70976;BME280;58635;51.198;6.010;2022-08-01T05:07:23;101530.78;;;24.27;60.45
70976;BME280;58635;51.198;6.010;2022-08-01T05:09:49;101533.69;;;24.25;60.82
70976;BME280;58635;51.198;6.010;2022-08-01T05:12:16;101531.03;;;24.25;60.76
70976;BME280;58635;51.198;6.010;2022-08-01T05:14:41;101526.03;;;24.24;60.54
70976;BME280;58635;51.198;6.010;2022-08-01T05:17:08;101534.25;;;24.27;60.46
70976;BME280;58635;51.198;6.010;2022-08-01T05:19:34;101533.19;;;24.28;60.46
70976;BME280;58635;51.198;6.010;2022-08-01T05:22:01;101527.63;;;24.30;60.51
70976;BME280;58635;51.198;6.010;2022-08-01T05:24:34;101532.41;;;24.33;60.72
70976;BME280;58635;51.198;6.010;2022-08-01T05:27:00;101533.72;;;24.35;60.58
70976;BME280;58635;51.198;6.010;2022-08-01T05:29:26;101534.78;;;24.39;60.16
70976;BME280;58635;51.198;6.010;2022-08-01T05:31:52;101539.78;;;24.41;60.37
70976;BME280;58635;51.198;6.010;2022-08-01T05:34:18;101538.72;;;24.42;60.12
70976;BME280;58635;51.198;6.010;2022-08-01T05:36:44;101542.16;;;24.47;60.06
70976;BME280;58635;51.198;6.010;2022-08-01T05:39:09;101545.59;;;24.53;60.32
70976;BME280;58635;51.198;6.010;2022-08-01T05:41:36;101549.53;;;24.56;59.92
70976;BME280;58635;51.198;6.010;2022-08-01T05:44:02;101546.91;;;24.56;60.24
70976;BME280;58635;51.198;6.010;2022-08-01T05:46:28;101552.44;;;24.59;59.70
70976;BME280;58635;51.198;6.010;2022-08-01T05:48:56;101548.72;;;24.60;59.56
70976;BME280;58635;51.198;6.010;2022-08-01T05:51:22;101547.66;;;24.61;59.45
70976;BME280;58635;51.198;6.010;2022-08-01T05:53:48;101551.09;;;24.62;59.86
70976;BME280;58635;51.198;6.010;2022-08-01T05:56:13;101547.44;;;24.63;60.06
70976;BME280;58635;51.198;6.010;2022-08-01T05:58:39;101550.59;;;24.65;59.53
70976;BME280;58635;51.198;6.010;2022-08-01T06:01:04;101547.16;;;24.64;59.50
70976;BME280;58635;51.198;6.010;2022-08-01T06:03:29;101556.41;;;24.67;59.33
70976;BME280;58635;51.198;6.010;2022-08-01T06:05:57;101555.34;;;24.68;59.55
70976;BME280;58635;51.198;6.010;2022-08-01T06:08:22;101550.28;;;24.71;59.45
70976;BME280;58635;51.198;6.010;2022-08-01T06:10:48;101544.47;;;24.74;59.21
70976;BME280;58635;51.198;6.010;2022-08-01T06:13:14;101554.75;;;24.81;59.04
70976;BME280;58635;51.198;6.010;2022-08-01T06:15:39;101549.44;;;24.86;58.97
70976;BME280;58635;51.198;6.010;2022-08-01T06:18:05;101548.66;;;24.91;59.05
70976;BME280;58635;51.198;6.010;2022-08-01T06:20:30;101541.22;;;24.93;58.66
70976;BME280;58635;51.198;6.010;2022-08-01T06:22:56;101549.94;;;24.93;58.82
70976;BME280;58635;51.198;6.010;2022-08-01T06:25:21;101546.00;;;24.91;58.57
70976;BME280;58635;51.198;6.010;2022-08-01T06:27:48;101551.84;;;24.88;58.86
70976;BME280;58635;51.198;6.010;2022-08-01T06:30:14;101550.78;;;24.89;58.51
70976;BME280;58635;51.198;6.010;2022-08-01T06:32:39;101558.16;;;24.92;57.71
70976;BME280;58635;51.198;6.010;2022-08-01T06:35:05;101555.75;;;24.95;57.80
70976;BME280;58635;51.198;6.010;2022-08-01T06:37:31;101549.13;;;24.98;57.85
70976;BME280;58635;51.198;6.010;2022-08-01T06:40:02;101542.78;;;25.04;57.95
70976;BME280;58635;51.198;6.010;2022-08-01T06:42:27;101544.88;;;25.12;57.61
70976;BME280;58635;51.198;6.010;2022-08-01T06:44:53;101550.94;;;25.23;57.32
70976;BME280;58635;51.198;6.010;2022-08-01T06:47:18;101555.63;;;25.31;56.85
70976;BME280;58635;51.198;6.010;2022-08-01T06:49:43;101556.59;;;25.50;56.94
70976;BME280;58635;51.198;6.010;2022-08-01T06:52:09;101560.44;;;25.73;56.35
70976;BME280;58635;51.198;6.010;2022-08-01T06:54:34;101559.31;;;25.84;55.59
70976;BME280;58635;51.198;6.010;2022-08-01T06:57:00;101556.88;;;25.88;55.78
70976;BME280;58635;51.198;6.010;2022-08-01T06:59:25;101552.09;;;25.90;55.70
70976;BME280;58635;51.198;6.010;2022-08-01T07:01:51;101555.81;;;25.89;55.40
70976;BME280;58635;51.198;6.010;2022-08-01T07:04:16;101561.91;;;25.89;55.26
70976;BME280;58635;51.198;6.010;2022-08-01T07:06:42;101552.88;;;25.90;55.30
70976;BME280;58635;51.198;6.010;2022-08-01T07:09:07;101551.59;;;25.88;55.39
70976;BME280;58635;51.198;6.010;2022-08-01T07:11:32;101559.81;;;25.86;55.44
70976;BME280;58635;51.198;6.010;2022-08-01T07:13:58;101558.25;;;25.80;55.23
70976;BME280;58635;51.198;6.010;2022-08-01T07:16:24;101553.78;;;25.76;55.40
70976;BME280;58635;51.198;6.010;2022-08-01T07:18:49;101555.16;;;25.73;55.36
70976;BME280;58635;51.198;6.010;2022-08-01T07:21:15;101555.41;;;25.66;55.44
70976;BME280;58635;51.198;6.010;2022-08-01T07:23:40;101556.50;;;25.71;55.47
70976;BME280;58635;51.198;6.010;2022-08-01T07:26:05;101558.31;;;25.75;55.37
70976;BME280;58635;51.198;6.010;2022-08-01T07:28:32;101564.31;;;25.86;54.86
70976;BME280;58635;51.198;6.010;2022-08-01T07:30:57;101569.75;;;26.05;54.23
70976;BME280;58635;51.198;6.010;2022-08-01T07:33:23;101568.34;;;26.12;53.98
70976;BME280;58635;51.198;6.010;2022-08-01T07:35:48;101567.47;;;26.22;53.99
70976;BME280;58635;51.198;6.010;2022-08-01T07:38:14;101569.00;;;26.28;53.41
70976;BME280;58635;51.198;6.010;2022-08-01T07:40:42;101571.75;;;26.18;53.74
70976;BME280;58635;51.198;6.010;2022-08-01T07:43:08;101570.13;;;26.22;54.00
70976;BME280;58635;51.198;6.010;2022-08-01T07:45:33;101577.22;;;26.27;53.60
70976;BME280;58635;51.198;6.010;2022-08-01T07:48:06;101582.25;;;26.28;53.38
70976;BME280;58635;51.198;6.010;2022-08-01T07:50:31;101580.97;;;26.26;53.38
70976;BME280;58635;51.198;6.010;2022-08-01T07:52:57;101588.13;;;26.25;53.40
70976;BME280;58635;51.198;6.010;2022-08-01T07:57:52;101590.84;;;26.20;53.65
70976;BME280;58635;51.198;6.010;2022-08-01T08:00:18;101588.19;;;26.20;53.75
70976;BME280;58635;51.198;6.010;2022-08-01T08:02:43;101591.63;;;26.20;53.38
70976;BME280;58635;51.198;6.010;2022-08-01T08:05:10;101592.41;;;26.21;53.60
70976;BME280;58635;51.198;6.010;2022-08-01T08:07:36;101591.06;;;26.23;53.30
70976;BME280;58635;51.198;6.010;2022-08-01T08:10:02;101585.75;;;26.23;53.18
70976;BME280;58635;51.198;6.010;2022-08-01T08:12:28;101591.03;;;26.29;53.08
70976;BME280;58635;51.198;6.010;2022-08-01T08:14:54;101589.06;;;26.39;52.40
70976;BME280;58635;51.198;6.010;2022-08-01T08:17:19;101587.91;;;26.50;52.17
70976;BME280;58635;51.198;6.010;2022-08-01T08:19:45;101592.03;;;26.62;52.12
70976;BME280;58635;51.198;6.010;2022-08-01T08:22:10;101588.72;;;26.75;51.60
70976;BME280;58635;51.198;6.010;2022-08-01T08:24:37;101588.06;;;26.88;51.32
70976;BME280;58635;51.198;6.010;2022-08-01T08:27:03;101593.59;;;27.16;50.72
70976;BME280;58635;51.198;6.010;2022-08-01T08:29:30;101603.31;;;27.44;50.22
70976;BME280;58635;51.198;6.010;2022-08-01T08:31:58;101599.31;;;27.65;49.46
70976;BME280;58635;51.198;6.010;2022-08-01T08:34:24;101600.75;;;27.77;49.69
70976;BME280;58635;51.198;6.010;2022-08-01T08:36:51;101592.78;;;27.77;49.19
70976;BME280;58635;51.198;6.010;2022-08-01T08:39:17;101602.97;;;27.70;49.14
70976;BME280;58635;51.198;6.010;2022-08-01T08:41:42;101604.00;;;27.74;48.50
70976;BME280;58635;51.198;6.010;2022-08-01T08:44:09;101602.28;;;27.83;48.17
70976;BME280;58635;51.198;6.010;2022-08-01T08:46:40;101601.44;;;28.01;48.07
70976;BME280;58635;51.198;6.010;2022-08-01T08:49:06;101601.81;;;28.27;47.38
70976;BME280;58635;51.198;6.010;2022-08-01T08:51:34;101605.03;;;28.57;46.56
70976;BME280;58635;51.198;6.010;2022-08-01T08:54:04;101608.00;;;28.82;46.02
70976;BME280;58635;51.198;6.010;2022-08-01T08:56:30;101597.06;;;28.98;45.92
70976;BME280;58635;51.198;6.010;2022-08-01T08:58:59;101598.56;;;29.04;45.33
70976;BME280;58635;51.198;6.010;2022-08-01T09:01:25;101588.88;;;29.08;44.78
70976;BME280;58635;51.198;6.010;2022-08-01T09:03:50;101606.41;;;29.23;44.99
70976;BME280;58635;51.198;6.010;2022-08-01T09:06:16;101596.81;;;29.35;44.58
70976;BME280;58635;51.198;6.010;2022-08-01T09:08:41;101600.09;;;29.32;44.21
70976;BME280;58635;51.198;6.010;2022-08-01T09:11:07;101599.28;;;29.32;44.03
70976;BME280;58635;51.198;6.010;2022-08-01T09:13:32;101599.00;;;29.33;44.37
70976;BME280;58635;51.198;6.010;2022-08-01T09:15:58;101601.66;;;29.33;44.22
70976;BME280;58635;51.198;6.010;2022-08-01T09:23:52;101617.75;;;29.28;43.82
70976;BME280;58635;51.198;6.010;2022-08-01T09:26:20;101615.03;;;29.06;43.98
70976;BME280;58635;51.198;6.010;2022-08-01T09:28:47;101614.13;;;28.83;44.47
70976;BME280;58635;51.198;6.010;2022-08-01T09:31:15;101628.22;;;28.70;44.74
70976;BME280;58635;51.198;6.010;2022-08-01T09:36:12;101608.56;;;28.52;45.21
70976;BME280;58635;51.198;6.010;2022-08-01T09:38:38;101610.47;;;28.65;45.28
70976;BME280;58635;51.198;6.010;2022-08-01T09:41:03;101607.66;;;28.89;44.47
70976;BME280;58635;51.198;6.010;2022-08-01T09:43:30;101601.50;;;29.16;43.68
70976;BME280;58635;51.198;6.010;2022-08-01T09:45:56;101603.91;;;29.40;43.31
70976;BME280;58635;51.198;6.010;2022-08-01T09:48:22;101611.28;;;29.57;43.03
70976;BME280;58635;51.198;6.010;2022-08-01T09:50:50;101605.91;;;29.70;42.82
70976;BME280;58635;51.198;6.010;2022-08-01T09:53:16;101597.03;;;29.75;42.24
70976;BME280;58635;51.198;6.010;2022-08-01T09:55:43;101609.19;;;29.90;41.92
70976;BME280;58635;51.198;6.010;2022-08-01T09:58:10;101611.94;;;29.98;42.30
70976;BME280;58635;51.198;6.010;2022-08-01T10:00:38;101608.03;;;30.05;41.91
70976;BME280;58635;51.198;6.010;2022-08-01T10:03:23;101604.56;;;30.04;40.96
70976;BME280;58635;51.198;6.010;2022-08-01T10:05:50;101606.84;;;30.11;40.93
70976;BME280;58635;51.198;6.010;2022-08-01T10:08:16;101606.16;;;30.27;40.45
70976;BME280;58635;51.198;6.010;2022-08-01T10:11:10;101605.91;;;30.38;40.20
70976;BME280;58635;51.198;6.010;2022-08-01T10:13:36;101605.09;;;30.37;39.73
70976;BME280;58635;51.198;6.010;2022-08-01T10:16:02;101604.00;;;30.38;39.53
70976;BME280;58635;51.198;6.010;2022-08-01T10:18:31;101597.75;;;30.43;39.31
70976;BME280;58635;51.198;6.010;2022-08-01T10:20:57;101603.59;;;30.53;39.08
70976;BME280;58635;51.198;6.010;2022-08-01T10:23:26;101607.47;;;30.70;38.50
70976;BME280;58635;51.198;6.010;2022-08-01T10:25:53;101609.41;;;30.87;38.12
70976;BME280;58635;51.198;6.010;2022-08-01T10:28:21;101609.78;;;31.02;37.17
70976;BME280;58635;51.198;6.010;2022-08-01T10:30:48;101611.63;;;31.02;37.61
70976;BME280;58635;51.198;6.010;2022-08-01T10:33:14;101615.88;;;30.94;37.13
70976;BME280;58635;51.198;6.010;2022-08-01T10:35:40;101620.69;;;30.75;37.55
70976;BME280;58635;51.198;6.010;2022-08-01T10:38:06;101611.56;;;30.67;37.02
70976;BME280;58635;51.198;6.010;2022-08-01T10:40:32;101614.00;;;30.55;37.56
70976;BME280;58635;51.198;6.010;2022-08-01T10:42:58;101614.00;;;30.55;37.41
70976;BME280;58635;51.198;6.010;2022-08-01T10:45:24;101609.97;;;30.66;37.06
70976;BME280;58635;51.198;6.010;2022-08-01T10:48:03;101611.25;;;30.69;37.11
70976;BME280;58635;51.198;6.010;2022-08-01T10:50:33;101609.78;;;30.63;37.22
70976;BME280;58635;51.198;6.010;2022-08-01T10:53:11;101593.59;;;30.59;36.81
70976;BME280;58635;51.198;6.010;2022-08-01T10:58:31;101601.66;;;30.68;36.57
70976;BME280;58635;51.198;6.010;2022-08-01T11:04:12;101603.03;;;30.65;36.58
70976;BME280;58635;51.198;6.010;2022-08-01T11:09:16;101602.97;;;30.79;36.11
70976;BME280;58635;51.198;6.010;2022-08-01T11:12:06;101595.41;;;30.90;35.89
70976;BME280;58635;51.198;6.010;2022-08-01T11:15:16;101587.78;;;31.05;36.38
70976;BME280;58635;51.198;6.010;2022-08-01T11:17:39;101597.25;;;31.37;36.38
70976;BME280;58635;51.198;6.010;2022-08-01T11:20:18;101595.38;;;31.47;35.85
70976;BME280;58635;51.198;6.010;2022-08-01T11:38:46;101603.00;;;30.25;36.42
70976;BME280;58635;51.198;6.010;2022-08-01T11:44:06;101590.41;;;30.48;35.80
70976;BME280;58635;51.198;6.010;2022-08-01T11:46:53;101593.50;;;30.73;35.51
70976;BME280;58635;51.198;6.010;2022-08-01T11:52:12;101598.28;;;30.93;34.59
70976;BME280;58635;51.198;6.010;2022-08-01T11:57:11;101598.13;;;31.07;34.34
70976;BME280;58635;51.198;6.010;2022-08-01T11:59:40;101591.53;;;31.04;34.15
70976;BME280;58635;51.198;6.010;2022-08-01T12:04:57;101593.34;;;30.78;34.31
70976;BME280;58635;51.198;6.010;2022-08-01T12:07:23;101598.41;;;30.88;33.93
70976;BME280;58635;51.198;6.010;2022-08-01T12:12:29;101597.44;;;31.50;32.13
70976;BME280;58635;51.198;6.010;2022-08-01T12:14:57;101592.84;;;31.85;31.46
70976;BME280;58635;51.198;6.010;2022-08-01T12:17:32;101583.19;;;32.10;31.13
70976;BME280;58635;51.198;6.010;2022-08-01T12:19:58;101586.13;;;32.34;31.16
70976;BME280;58635;51.198;6.010;2022-08-01T12:22:24;101585.13;;;32.47;31.24
70976;BME280;58635;51.198;6.010;2022-08-01T12:24:50;101579.47;;;32.49;31.24
70976;BME280;58635;51.198;6.010;2022-08-01T12:27:29;101589.59;;;32.35;30.82
70976;BME280;58635;51.198;6.010;2022-08-01T12:29:57;101589.28;;;32.27;31.34
70976;BME280;58635;51.198;6.010;2022-08-01T12:32:24;101586.91;;;32.26;31.03
70976;BME280;58635;51.198;6.010;2022-08-01T12:34:51;101591.50;;;32.25;31.29
70976;BME280;58635;51.198;6.010;2022-08-01T12:37:17;101591.53;;;32.08;31.40
70976;BME280;58635;51.198;6.010;2022-08-01T12:39:44;101595.69;;;31.88;31.66
70976;BME280;58635;51.198;6.010;2022-08-01T12:42:11;101584.03;;;31.84;31.94
70976;BME280;58635;51.198;6.010;2022-08-01T12:44:37;101584.66;;;31.90;31.80
70976;BME280;58635;51.198;6.010;2022-08-01T12:47:06;101589.38;;;31.93;32.10
70976;BME280;58635;51.198;6.010;2022-08-01T12:49:33;101602.13;;;31.87;31.77
70976;BME280;58635;51.198;6.010;2022-08-01T12:52:00;101585.13;;;31.83;32.34
70976;BME280;58635;51.198;6.010;2022-08-01T12:54:26;101598.50;;;31.83;33.01
70976;BME280;58635;51.198;6.010;2022-08-01T12:56:52;101592.22;;;31.88;33.66
70976;BME280;58635;51.198;6.010;2022-08-01T12:59:26;101595.03;;;31.91;33.88
70976;BME280;58635;51.198;6.010;2022-08-01T13:01:55;101605.91;;;31.69;35.50
70976;BME280;58635;51.198;6.010;2022-08-01T13:04:22;101626.19;;;31.44;35.89
70976;BME280;58635;51.198;6.010;2022-08-01T13:06:57;101625.09;;;31.28;36.59
70976;BME280;58635;51.198;6.010;2022-08-01T13:09:22;101621.88;;;31.08;37.17
70976;BME280;58635;51.198;6.010;2022-08-01T13:11:48;101633.34;;;31.09;37.23
70976;BME280;58635;51.198;6.010;2022-08-01T13:14:29;101628.63;;;31.06;37.59
70976;BME280;58635;51.198;6.010;2022-08-01T13:16:55;101631.78;;;31.08;38.00
70976;BME280;58635;51.198;6.010;2022-08-01T13:19:20;101626.91;;;31.10;37.64
70976;BME280;58635;51.198;6.010;2022-08-01T13:21:54;101624.53;;;31.08;37.67
70976;BME280;58635;51.198;6.010;2022-08-01T13:24:27;101620.31;;;31.07;37.50
70976;BME280;58635;51.198;6.010;2022-08-01T13:26:56;101616.69;;;31.12;37.96
70976;BME280;58635;51.198;6.010;2022-08-01T13:29:38;101621.59;;;31.19;38.23
70976;BME280;58635;51.198;6.010;2022-08-01T13:32:20;101623.34;;;31.23;37.74
70976;BME280;58635;51.198;6.010;2022-08-01T13:34:46;101620.63;;;31.14;38.02
70976;BME280;58635;51.198;6.010;2022-08-01T13:37:11;101626.59;;;31.11;38.10
70976;BME280;58635;51.198;6.010;2022-08-01T13:39:37;101635.06;;;31.13;37.92
70976;BME280;58635;51.198;6.010;2022-08-01T13:42:05;101636.81;;;31.09;38.20
70976;BME280;58635;51.198;6.010;2022-08-01T13:44:31;101626.69;;;30.89;38.37
70976;BME280;58635;51.198;6.010;2022-08-01T13:46:56;101638.47;;;30.79;38.49
70976;BME280;58635;51.198;6.010;2022-08-01T13:49:23;101629.16;;;30.77;38.72
70976;BME280;58635;51.198;6.010;2022-08-01T13:51:49;101633.28;;;30.83;38.15
70976;BME280;58635;51.198;6.010;2022-08-01T13:54:16;101622.44;;;30.79;38.13
70976;BME280;58635;51.198;6.010;2022-08-01T13:56:42;101628.56;;;30.80;38.16
70976;BME280;58635;51.198;6.010;2022-08-01T13:59:07;101631.03;;;30.76;38.23
70976;BME280;58635;51.198;6.010;2022-08-01T14:01:34;101631.09;;;30.85;38.64
70976;BME280;58635;51.198;6.010;2022-08-01T14:03:59;101629.19;;;30.85;38.25
70976;BME280;58635;51.198;6.010;2022-08-01T14:06:25;101629.81;;;30.82;37.83
70976;BME280;58635;51.198;6.010;2022-08-01T14:08:50;101623.84;;;30.85;37.82
70976;BME280;58635;51.198;6.010;2022-08-01T14:11:16;101634.88;;;31.01;37.40
70976;BME280;58635;51.198;6.010;2022-08-01T14:13:43;101624.06;;;31.06;37.63
70976;BME280;58635;51.198;6.010;2022-08-01T14:16:08;101626.00;;;31.14;36.85
70976;BME280;58635;51.198;6.010;2022-08-01T14:18:34;101612.63;;;31.14;36.66
70976;BME280;58635;51.198;6.010;2022-08-01T14:20:59;101627.75;;;31.28;36.90
70976;BME280;58635;51.198;6.010;2022-08-01T14:23:25;101629.81;;;31.31;36.82
70976;BME280;58635;51.198;6.010;2022-08-01T14:25:51;101606.53;;;31.31;36.53
70976;BME280;58635;51.198;6.010;2022-08-01T14:28:17;101618.31;;;31.30;36.15
70976;BME280;58635;51.198;6.010;2022-08-01T14:30:43;101626.59;;;31.11;36.70
70976;BME280;58635;51.198;6.010;2022-08-01T14:33:09;101624.06;;;31.06;36.35
70976;BME280;58635;51.198;6.010;2022-08-01T14:35:35;101625.00;;;31.10;35.97
70976;BME280;58635;51.198;6.010;2022-08-01T14:38:00;101620.00;;;31.18;35.50
70976;BME280;58635;51.198;6.010;2022-08-01T14:40:26;101622.72;;;31.35;36.07
70976;BME280;58635;51.198;6.010;2022-08-01T14:42:51;101620.84;;;31.53;35.80
70976;BME280;58635;51.198;6.010;2022-08-01T14:45:17;101632.81;;;31.64;34.89
70976;BME280;58635;51.198;6.010;2022-08-01T14:47:42;101629.19;;;31.51;35.02
70976;BME280;58635;51.198;6.010;2022-08-01T14:50:10;101621.78;;;31.48;35.20
70976;BME280;58635;51.198;6.010;2022-08-01T14:52:37;101612.34;;;31.42;35.16
70976;BME280;58635;51.198;6.010;2022-08-01T14:55:04;101617.22;;;31.49;35.39